createdAt,value
2019-05-07T00:00:27.361Z,70.40
2019-05-07T00:02:59.260Z,71.10
2019-05-07T00:05:32.996Z,69.50
2019-05-07T00:08:05.139Z,71.10
2019-05-07T00:10:37.896Z,70.30
2019-05-07T00:13:09.808Z,71.00
2019-05-07T00:15:41.926Z,70.30
2019-05-07T00:18:14.001Z,71.10
2019-05-07T00:20:45.851Z,69.80
2019-05-07T00:23:17.529Z,70.20
2019-05-07T00:25:49.427Z,71.90
2019-05-07T00:28:22.821Z,70.10
2019-05-07T00:30:54.139Z,70.80
2019-05-07T00:33:25.896Z,69.40
2019-05-07T00:36:12.377Z,70.00
2019-05-07T00:38:45.342Z,70.80
2019-05-07T00:41:18.755Z,70.40
2019-05-07T00:43:52.471Z,69.80
2019-05-07T00:46:25.457Z,70.70
2019-05-07T00:48:57.110Z,69.30
2019-05-07T00:51:38.577Z,70.90
2019-05-07T00:54:12.145Z,69.30
2019-05-07T00:56:43.091Z,70.10
2019-05-07T00:59:14.564Z,68.90
2019-05-07T01:01:46.661Z,69.70
2019-05-07T01:04:18.489Z,69.90
2019-05-07T01:06:50.410Z,70.50
2019-05-07T01:09:22.933Z,69.70
2019-05-07T01:11:54.949Z,69.40
2019-05-07T01:14:26.666Z,68.70
2019-05-07T01:16:58.419Z,69.20
2019-05-07T01:19:30.036Z,68.00
2019-05-07T01:22:03.216Z,67.80
2019-05-07T01:24:35.110Z,67.70
2019-05-07T01:27:06.778Z,67.10
2019-05-07T01:29:38.642Z,68.10
2019-05-07T01:32:22.103Z,68.00
2019-05-07T01:35:02.458Z,67.90
2019-05-07T01:37:34.584Z,68.40
2019-05-07T01:40:06.414Z,69.20
2019-05-07T01:42:39.418Z,68.30
2019-05-07T01:45:12.902Z,68.40
2019-05-07T01:47:44.578Z,67.70
2019-05-07T01:50:17.706Z,68.20
2019-05-07T01:52:49.356Z,67.40
2019-05-07T01:55:22.570Z,68.20
2019-05-07T01:57:55.010Z,67.30
2019-05-07T02:00:29.312Z,67.10
2019-05-07T02:03:05.128Z,67.40
2019-05-07T02:05:42.263Z,67.10
2019-05-07T02:08:18.962Z,66.50
2019-05-07T02:10:52.221Z,66.00
2019-05-07T02:13:25.328Z,66.40
2019-05-07T02:16:01.000Z,65.90
2019-05-07T02:18:32.450Z,65.50
2019-05-07T02:21:04.031Z,65.00
2019-05-07T02:23:35.884Z,64.60
2019-05-07T02:26:07.419Z,64.30
2019-05-07T02:28:39.280Z,63.40
2019-05-07T02:31:14.546Z,63.10
2019-05-07T02:33:43.965Z,63.20
2019-05-07T02:36:15.630Z,63.00
2019-05-07T02:39:03.818Z,63.00
2019-05-07T02:41:36.888Z,63.20
2019-05-07T02:44:09.015Z,63.00
2019-05-07T02:46:53.832Z,63.00
2019-05-07T02:49:33.008Z,62.70
2019-05-07T02:52:06.263Z,62.30
2019-05-07T02:54:55.521Z,62.20
2019-05-07T02:57:28.168Z,61.70
2019-05-07T03:00:04.103Z,60.70
2019-05-07T03:02:33.241Z,61.10
2019-05-07T03:05:06.354Z,61.00
2019-05-07T03:07:37.958Z,60.70
2019-05-07T03:10:09.604Z,60.60
2019-05-07T03:12:42.955Z,60.80
2019-05-07T03:15:17.841Z,60.00
2019-05-07T03:17:50.171Z,59.40
2019-05-07T03:20:33.524Z,61.00
2019-05-07T03:23:06.148Z,60.00
2019-05-07T03:25:54.433Z,59.60
2019-05-07T03:28:27.926Z,59.60
2019-05-07T03:31:05.280Z,59.60
2019-05-07T03:33:36.519Z,59.10
2019-05-07T03:36:15.822Z,59.10
2019-05-07T03:38:44.026Z,58.60
2019-05-07T03:41:15.694Z,58.60
2019-05-07T03:43:47.453Z,58.10
2019-05-07T03:46:23.229Z,57.70
2019-05-07T03:48:56.737Z,57.30
2019-05-07T03:51:28.706Z,57.20
2019-05-07T03:54:03.680Z,56.90
2019-05-07T03:56:35.649Z,56.70
2019-05-07T03:59:07.397Z,56.10
2019-05-07T04:01:39.198Z,55.90
2019-05-07T04:04:13.153Z,55.70
2019-05-07T04:06:47.550Z,55.10
2019-05-07T04:09:19.153Z,55.30
2019-05-07T04:11:52.983Z,55.30
2019-05-07T04:14:24.160Z,51.20
2019-05-07T04:17:13.112Z,53.60
2019-05-07T04:19:32.740Z,54.20
2019-05-07T04:22:04.395Z,54.40
2019-05-07T04:24:49.303Z,54.10
2019-05-07T04:27:23.823Z,54.10
2019-05-07T04:29:56.177Z,47.90
2019-05-07T04:32:29.192Z,47.90
2019-05-07T04:35:04.042Z,49.90
2019-05-07T04:37:36.355Z,52.20
2019-05-07T04:40:13.236Z,53.10
2019-05-07T04:42:44.644Z,52.90
2019-05-07T04:45:16.907Z,52.90
2019-05-07T04:47:53.536Z,52.80
2019-05-07T04:50:38.054Z,52.60
2019-05-07T04:52:59.358Z,52.50
2019-05-07T04:55:33.780Z,53.10
2019-05-07T04:58:08.917Z,51.40
2019-05-07T05:00:39.244Z,50.50
2019-05-07T05:03:15.703Z,51.40
2019-05-07T05:05:47.559Z,51.50
2019-05-07T05:08:19.328Z,51.30
2019-05-07T05:10:53.704Z,51.40
2019-05-07T05:13:26.052Z,51.20
2019-05-07T05:15:59.460Z,51.00
2019-05-07T05:18:33.042Z,50.40
2019-05-07T05:21:22.784Z,50.40
2019-05-07T05:23:59.020Z,50.40
2019-05-07T05:26:32.461Z,47.90
2019-05-07T05:29:05.065Z,49.80
2019-05-07T05:31:37.824Z,50.00
2019-05-07T05:34:09.504Z,49.90
2019-05-07T05:36:42.523Z,50.00
2019-05-07T05:39:14.219Z,48.10
2019-05-07T05:41:47.041Z,49.30
2019-05-07T05:44:22.625Z,44.10
2019-05-07T05:46:53.075Z,46.30
2019-05-07T05:49:27.138Z,49.00
2019-05-07T05:52:01.902Z,49.50
2019-05-07T05:54:34.090Z,49.80
2019-05-07T05:57:15.928Z,49.80
2019-05-07T05:59:51.957Z,49.60
2019-05-07T06:02:23.028Z,49.50
2019-05-07T06:04:58.475Z,49.40
2019-05-07T06:07:31.923Z,49.30
2019-05-07T06:10:07.787Z,49.30
2019-05-07T06:12:52.058Z,48.70
2019-05-07T06:15:23.901Z,44.90
2019-05-07T06:18:02.720Z,47.70
2019-05-07T06:20:39.463Z,48.90
2019-05-07T06:23:22.505Z,48.40
2019-05-07T06:25:54.576Z,47.70
2019-05-07T06:28:26.210Z,47.90
2019-05-07T06:30:57.983Z,48.30
2019-05-07T06:33:29.552Z,47.60
2019-05-07T06:36:02.688Z,44.30
2019-05-07T06:38:35.076Z,43.80
2019-05-07T06:41:17.043Z,46.70
2019-05-07T06:43:52.625Z,47.80
2019-05-07T06:46:24.252Z,46.00
2019-05-07T06:48:56.063Z,44.00
2019-05-07T06:51:27.622Z,46.30
2019-05-07T06:53:59.282Z,46.60
2019-05-07T06:56:32.453Z,46.60
2019-05-07T06:59:12.804Z,46.80
2019-05-07T07:01:47.531Z,47.00
2019-05-07T07:04:23.648Z,44.70
2019-05-07T07:06:56.575Z,47.00
2019-05-07T07:09:42.411Z,42.70
2019-05-07T07:12:15.351Z,44.40
2019-05-07T07:14:47.359Z,46.70
2019-05-07T07:17:18.926Z,46.80
2019-05-07T07:19:52.338Z,47.30
2019-05-07T07:22:23.643Z,47.50
2019-05-07T07:24:55.601Z,47.90
2019-05-07T07:27:27.255Z,47.20
2019-05-07T07:30:12.832Z,47.80
2019-05-07T07:32:45.649Z,46.80
2019-05-07T07:35:18.569Z,49.20
2019-05-07T07:37:50.326Z,50.30
2019-05-07T07:40:29.231Z,50.10
2019-05-07T07:43:04.872Z,52.40
2019-05-07T07:45:33.883Z,54.30
2019-05-07T07:48:05.406Z,55.50
2019-05-07T07:50:36.848Z,57.60
2019-05-07T07:53:08.926Z,58.50
2019-05-07T07:55:42.587Z,60.00
2019-05-07T07:58:15.735Z,61.20
2019-05-07T08:00:48.571Z,60.60
2019-05-07T08:03:22.431Z,61.00
2019-05-07T08:05:53.015Z,61.50
2019-05-07T08:08:24.631Z,61.90
2019-05-07T08:10:56.186Z,61.60
2019-05-07T08:13:27.959Z,62.70
2019-05-07T08:15:59.502Z,63.00
2019-05-07T08:18:32.790Z,64.10
2019-05-07T08:21:07.795Z,64.60
2019-05-07T08:23:38.534Z,64.40
2019-05-07T08:26:12.564Z,65.20
2019-05-07T08:28:43.431Z,64.80
2019-05-07T08:31:32.394Z,64.50
2019-05-07T08:34:14.017Z,64.60
2019-05-07T08:36:44.443Z,65.30
2019-05-07T08:39:16.155Z,65.40
2019-05-07T08:41:48.044Z,65.50
2019-05-07T08:44:22.303Z,65.70
2019-05-07T08:46:55.253Z,65.70
2019-05-07T08:49:36.841Z,65.30
2019-05-07T08:52:03.766Z,64.90
2019-05-07T08:54:38.060Z,65.10
2019-05-07T08:57:12.079Z,64.40
2019-05-07T08:59:57.189Z,64.20
2019-05-07T09:02:16.134Z,63.20
2019-05-07T09:04:47.838Z,63.20
2019-05-07T09:07:21.671Z,62.90
2019-05-07T09:09:52.942Z,61.70
2019-05-07T09:12:24.899Z,62.80
2019-05-07T09:14:56.458Z,62.30
2019-05-07T09:17:27.999Z,62.00
2019-05-07T09:20:02.340Z,62.40
2019-05-07T09:22:32.598Z,62.20
2019-05-07T09:25:04.210Z,62.80
2019-05-07T09:27:36.977Z,62.10
2019-05-07T09:30:28.762Z,62.00
2019-05-07T09:33:02.529Z,62.00
2019-05-07T09:35:39.854Z,61.80
2019-05-07T09:38:12.215Z,61.60
2019-05-07T09:40:43.992Z,61.70
2019-05-07T09:43:16.019Z,62.60
2019-05-07T09:45:47.951Z,61.80
2019-05-07T09:48:19.651Z,62.40
2019-05-07T09:50:53.054Z,62.90
2019-05-07T09:53:24.472Z,63.60
2019-05-07T09:55:56.371Z,62.80
2019-05-07T09:58:36.541Z,64.10
2019-05-07T10:01:02.059Z,62.70
2019-05-07T10:03:33.904Z,63.30
2019-05-07T10:06:05.711Z,64.00
2019-05-07T10:08:37.309Z,63.00
2019-05-07T10:11:12.117Z,64.20
2019-05-07T10:13:45.133Z,63.70
2019-05-07T10:16:18.306Z,63.20
2019-05-07T10:18:51.918Z,62.70
2019-05-07T10:21:23.074Z,63.60
2019-05-07T10:23:54.439Z,62.80
2019-05-07T10:26:26.077Z,62.60
2019-05-07T10:28:57.837Z,63.00
2019-05-07T10:31:31.860Z,62.10
2019-05-07T10:34:03.051Z,62.00
2019-05-07T10:36:34.762Z,62.30
2019-05-07T10:39:07.555Z,62.70
2019-05-07T10:41:39.140Z,62.70
2019-05-07T10:44:11.986Z,62.70
2019-05-07T10:47:02.011Z,63.10
2019-05-07T10:49:35.307Z,62.90
2019-05-07T10:52:07.607Z,64.30
2019-05-07T10:54:39.576Z,63.60
2019-05-07T10:57:11.933Z,63.40
2019-05-07T10:59:43.989Z,63.50
2019-05-07T11:02:17.149Z,62.70
2019-05-07T11:04:49.157Z,62.30
2019-05-07T11:07:22.232Z,62.60
2019-05-07T11:09:53.864Z,62.90
2019-05-07T11:12:25.564Z,63.10
2019-05-07T11:14:57.212Z,63.30
2019-05-07T11:17:33.142Z,64.20
2019-05-07T11:20:05.119Z,64.20
2019-05-07T11:22:37.098Z,64.40
2019-05-07T11:25:08.977Z,63.90
2019-05-07T11:27:42.114Z,63.20
2019-05-07T11:30:49.890Z,62.90
2019-05-07T11:33:22.058Z,63.20
2019-05-07T11:35:53.980Z,63.70
2019-05-07T11:38:25.930Z,63.40
2019-05-07T11:40:57.665Z,64.70
2019-05-07T11:43:32.495Z,64.90
2019-05-07T11:46:10.235Z,64.40
2019-05-07T11:48:43.604Z,65.70
2019-05-07T11:51:33.417Z,65.30
2019-05-07T11:54:17.978Z,65.10
2019-05-07T11:56:49.345Z,65.30
2019-05-07T11:59:23.424Z,64.80
2019-05-07T12:01:56.332Z,65.30
2019-05-07T12:04:28.241Z,64.30
2019-05-07T12:06:59.993Z,64.30
2019-05-07T12:09:33.243Z,64.50
2019-05-07T12:12:04.672Z,63.90
2019-05-07T12:14:36.552Z,63.70
2019-05-07T12:17:08.196Z,65.10
2019-05-07T12:19:43.698Z,65.80
2019-05-07T12:22:13.028Z,66.40
2019-05-07T12:24:45.801Z,66.70
2019-05-07T12:27:17.408Z,66.30
2019-05-07T12:29:49.192Z,67.00
2019-05-07T12:32:28.370Z,66.30
2019-05-07T12:35:02.255Z,67.20
2019-05-07T12:37:34.153Z,67.30
2019-05-07T12:40:06.844Z,67.50
2019-05-07T12:42:38.689Z,66.90
2019-05-07T12:45:12.510Z,67.30
2019-05-07T12:47:43.737Z,67.80
2019-05-07T12:50:15.711Z,69.10
2019-05-07T12:52:48.907Z,68.00
2019-05-07T12:55:38.593Z,67.40
2019-05-07T12:58:12.477Z,68.40
2019-05-07T13:00:52.019Z,68.20
2019-05-07T13:03:37.810Z,68.80
2019-05-07T13:06:11.549Z,67.80
2019-05-07T13:08:42.689Z,69.00
2019-05-07T13:11:14.474Z,68.40
2019-05-07T13:13:46.058Z,68.50
2019-05-07T13:16:17.861Z,69.80
2019-05-07T13:18:49.197Z,69.90
2019-05-07T13:21:22.462Z,69.90
2019-05-07T13:23:53.884Z,69.10
2019-05-07T13:26:25.302Z,71.00
2019-05-07T13:28:56.944Z,71.00
2019-05-07T13:31:28.921Z,68.40
2019-05-07T13:34:02.749Z,68.00
2019-05-07T13:36:33.901Z,70.30
2019-05-07T13:39:13.007Z,70.70
2019-05-07T13:41:46.508Z,71.20
2019-05-07T13:44:25.638Z,71.00
2019-05-07T13:47:15.651Z,69.10
2019-05-07T13:49:47.585Z,67.80
2019-05-07T13:52:19.444Z,68.40
2019-05-07T13:54:52.579Z,69.50
2019-05-07T13:57:24.532Z,67.20
2019-05-07T13:59:56.248Z,67.10
2019-05-07T14:02:31.648Z,66.90
2019-05-07T14:05:02.808Z,66.70
2019-05-07T14:07:35.809Z,67.40
2019-05-07T14:10:07.496Z,67.30
2019-05-07T14:12:39.356Z,66.60
2019-05-07T14:15:12.594Z,67.60
2019-05-07T14:17:44.034Z,68.30
2019-05-07T14:20:15.906Z,68.80
2019-05-07T14:22:47.517Z,67.80
2019-05-07T14:25:19.113Z,67.50
2019-05-07T14:27:52.554Z,68.10
2019-05-07T14:30:24.558Z,67.80
2019-05-07T14:33:16.384Z,67.30
2019-05-07T14:35:49.400Z,67.90
2019-05-07T14:38:28.486Z,67.00
2019-05-07T14:41:02.508Z,66.50
2019-05-07T14:43:37.526Z,66.40
2019-05-07T14:46:09.006Z,67.00
2019-05-07T14:48:41.948Z,67.50
2019-05-07T14:51:13.692Z,67.90
2019-05-07T14:53:45.408Z,68.40
2019-05-07T14:56:17.208Z,68.30
2019-05-07T14:58:49.145Z,67.90
2019-05-07T15:01:22.425Z,67.50
2019-05-07T15:03:56.348Z,68.40
2019-05-07T15:06:28.082Z,68.70
2019-05-07T15:08:59.906Z,68.80
2019-05-07T15:11:31.829Z,68.50
2019-05-07T15:14:03.740Z,68.20
2019-05-07T15:16:35.373Z,68.00
2019-05-07T15:19:07.214Z,67.80
2019-05-07T15:21:38.969Z,68.40
2019-05-07T15:24:12.562Z,69.00
2019-05-07T15:26:43.846Z,68.90
2019-05-07T15:29:16.102Z,68.30
2019-05-07T15:32:03.188Z,68.20
2019-05-07T15:34:34.055Z,68.20
2019-05-07T15:37:05.733Z,68.80
2019-05-07T15:39:37.689Z,68.00
2019-05-07T15:42:09.328Z,69.10
2019-05-07T15:44:43.071Z,69.20
2019-05-07T15:47:15.327Z,69.50
2019-05-07T15:49:47.080Z,69.10
2019-05-07T15:52:23.455Z,68.30
2019-05-07T15:54:55.149Z,67.80
2019-05-07T15:57:28.616Z,67.40
2019-05-07T16:00:12.366Z,67.20
2019-05-07T16:02:45.482Z,66.80
2019-05-07T16:05:18.582Z,66.50
2019-05-07T16:07:51.399Z,66.50
2019-05-07T16:10:23.209Z,66.60
2019-05-07T16:12:55.760Z,66.40
2019-05-07T16:15:27.501Z,66.90
2019-05-07T16:18:02.796Z,66.20
2019-05-07T16:20:33.929Z,66.10
2019-05-07T16:23:14.654Z,65.80
2019-05-07T16:25:38.473Z,66.00
2019-05-07T16:28:12.615Z,65.70
2019-05-07T16:30:43.411Z,66.40
2019-05-07T16:33:15.669Z,65.70
2019-05-07T16:35:47.437Z,65.80
2019-05-07T16:38:19.009Z,66.60
2019-05-07T16:40:52.235Z,65.90
2019-05-07T16:43:23.861Z,66.40
2019-05-07T16:45:55.597Z,66.60
2019-05-07T16:48:27.284Z,65.40
2019-05-07T16:50:58.950Z,65.90
2019-05-07T16:53:33.075Z,66.10
2019-05-07T16:56:04.084Z,66.50
2019-05-07T16:58:37.599Z,66.70
2019-05-07T17:01:10.550Z,66.70
2019-05-07T17:03:43.991Z,66.60
2019-05-07T17:06:15.953Z,66.90
2019-05-07T17:08:52.319Z,66.70
2019-05-07T17:11:23.885Z,66.50
2019-05-07T17:13:55.417Z,66.80
2019-05-07T17:16:27.164Z,66.30
2019-05-07T17:18:58.760Z,67.40
2019-05-07T17:21:32.246Z,66.90
2019-05-07T17:24:03.377Z,67.30
2019-05-07T17:26:34.973Z,68.10
2019-05-07T17:29:06.958Z,67.60
2019-05-07T17:31:38.712Z,68.90
2019-05-07T17:34:11.849Z,67.70
2019-05-07T17:36:43.832Z,67.40
2019-05-07T17:39:15.633Z,68.60
2019-05-07T17:41:47.081Z,68.90
2019-05-07T17:44:18.848Z,69.30
2019-05-07T17:46:51.885Z,69.80
2019-05-07T17:49:23.550Z,68.20
2019-05-07T17:51:55.465Z,68.10
2019-05-07T17:54:27.104Z,67.70
2019-05-07T17:56:58.730Z,67.90
2019-05-07T17:59:32.034Z,67.80
2019-05-07T18:02:21.901Z,69.10
2019-05-07T18:04:54.714Z,68.80
2019-05-07T18:07:28.004Z,67.80
2019-05-07T18:09:59.576Z,68.30
2019-05-07T18:12:32.026Z,67.90
2019-05-07T18:15:04.118Z,69.60
2019-05-07T18:17:37.167Z,70.40
2019-05-07T18:20:09.158Z,69.20
2019-05-07T18:22:40.812Z,69.30
2019-05-07T18:25:12.886Z,69.10
2019-05-07T18:27:44.743Z,70.30
2019-05-07T18:30:16.547Z,69.70
2019-05-07T18:32:49.436Z,70.70
2019-05-07T18:35:23.024Z,71.70
2019-05-07T18:37:54.338Z,71.20
2019-05-07T18:40:26.163Z,71.80
2019-05-07T18:42:57.798Z,72.60
2019-05-07T18:45:29.639Z,73.00
2019-05-07T18:48:02.424Z,73.00
2019-05-07T18:50:34.253Z,73.00
2019-05-07T18:53:05.961Z,72.50
2019-05-07T18:55:37.700Z,73.40
2019-05-07T18:58:09.679Z,73.80
2019-05-07T19:00:45.501Z,72.50
2019-05-07T19:03:17.528Z,71.60
2019-05-07T19:05:49.037Z,70.90
2019-05-07T19:08:22.863Z,71.40
2019-05-07T19:10:54.304Z,72.70
2019-05-07T19:13:26.205Z,71.40
2019-05-07T19:15:57.874Z,73.00
2019-05-07T19:18:32.027Z,72.30
2019-05-07T19:21:02.891Z,71.40
2019-05-07T19:23:34.976Z,74.80
2019-05-07T19:26:06.616Z,73.10
2019-05-07T19:28:38.529Z,73.40
2019-05-07T19:31:12.263Z,74.70
2019-05-07T19:33:43.584Z,72.90
2019-05-07T19:36:15.340Z,71.90
2019-05-07T19:38:47.372Z,75.60
2019-05-07T19:41:19.228Z,74.00
2019-05-07T19:43:52.746Z,76.60
2019-05-07T19:46:24.333Z,75.30
2019-05-07T19:48:56.248Z,75.70
2019-05-07T19:51:27.965Z,75.00
2019-05-07T19:54:01.942Z,75.10
2019-05-07T19:56:32.972Z,73.90
2019-05-07T19:59:04.900Z,74.20
2019-05-07T20:01:38.073Z,75.10
2019-05-07T20:04:09.905Z,77.30
2019-05-07T20:06:42.924Z,77.10
2019-05-07T20:09:18.716Z,77.00
2019-05-07T20:11:52.354Z,75.90
2019-05-07T20:14:24.313Z,75.90
2019-05-07T20:16:55.979Z,75.00
2019-05-07T20:19:27.896Z,74.30
2019-05-07T20:22:01.972Z,76.60
2019-05-07T20:24:33.219Z,76.10
2019-05-07T20:27:05.257Z,77.00
2019-05-07T20:29:37.193Z,76.70
2019-05-07T20:32:09.096Z,77.00
2019-05-07T20:34:42.319Z,78.70
2019-05-07T20:37:13.747Z,77.80
2019-05-07T20:39:45.669Z,77.60
2019-05-07T20:42:17.368Z,77.40
2019-05-07T20:44:49.133Z,79.10
2019-05-07T20:47:22.031Z,78.10
2019-05-07T20:49:54.046Z,79.40
2019-05-07T20:52:25.953Z,79.30
2019-05-07T20:55:05.499Z,79.40
2019-05-07T20:57:38.719Z,79.30
2019-05-07T21:00:12.331Z,79.90
2019-05-07T21:02:47.917Z,80.40
2019-05-07T21:05:17.248Z,80.60
2019-05-07T21:07:49.100Z,80.40
2019-05-07T21:10:22.134Z,80.20
2019-05-07T21:12:54.159Z,81.40
2019-05-07T21:15:25.928Z,81.60
2019-05-07T21:17:57.563Z,81.90
2019-05-07T21:20:29.510Z,82.10
2019-05-07T21:23:02.673Z,82.00
2019-05-07T21:25:42.677Z,82.40
2019-05-07T21:28:07.423Z,82.40
2019-05-07T21:30:39.314Z,83.00
2019-05-07T21:33:11.955Z,83.10
2019-05-07T21:35:43.896Z,84.10
2019-05-07T21:38:15.764Z,83.30
2019-05-07T21:40:47.692Z,83.50
2019-05-07T21:43:21.902Z,83.40
2019-05-07T21:45:52.987Z,82.70
2019-05-07T21:48:25.067Z,83.20
2019-05-07T21:50:56.929Z,83.00
2019-05-07T21:53:32.202Z,83.30
2019-05-07T21:56:05.442Z,83.10
2019-05-07T21:58:41.556Z,83.60
2019-05-07T22:01:33.402Z,82.40
2019-05-07T22:04:05.247Z,82.50
2019-05-07T22:06:36.861Z,83.10
2019-05-07T22:09:12.676Z,83.10
2019-05-07T22:11:43.712Z,83.20
2019-05-07T22:14:15.528Z,83.10
2019-05-07T22:16:47.329Z,83.40
2019-05-07T22:19:19.212Z,83.30
2019-05-07T22:21:52.307Z,83.30
2019-05-07T22:24:24.449Z,83.60
2019-05-07T22:26:56.380Z,83.30
2019-05-07T22:29:28.153Z,83.50
2019-05-07T22:32:02.732Z,83.40
2019-05-07T22:34:38.544Z,82.60
2019-05-07T22:37:12.468Z,81.20
2019-05-07T22:39:43.521Z,80.60
2019-05-07T22:42:15.384Z,82.90
2019-05-07T22:44:47.412Z,82.10
2019-05-07T22:47:22.956Z,81.00
2019-05-07T22:49:55.173Z,80.80
2019-05-07T22:52:27.348Z,82.60
2019-05-07T22:54:59.328Z,82.60
2019-05-07T22:57:42.005Z,82.80
2019-05-07T23:00:15.691Z,83.10
2019-05-07T23:02:47.380Z,83.90
2019-05-07T23:05:19.379Z,83.50
2019-05-07T23:07:52.638Z,83.70
2019-05-07T23:10:24.713Z,83.50
2019-05-07T23:12:56.638Z,82.70
2019-05-07T23:15:28.605Z,83.80
2019-05-07T23:18:04.211Z,83.70
2019-05-07T23:20:33.604Z,83.90
2019-05-07T23:23:05.358Z,84.00
2019-05-07T23:25:37.328Z,84.10
2019-05-07T23:28:09.084Z,83.80
2019-05-07T23:30:51.864Z,84.10
2019-05-07T23:33:23.152Z,83.70
2019-05-07T23:35:55.396Z,83.50
2019-05-07T23:38:27.184Z,84.00
2019-05-07T23:41:03.436Z,83.90
2019-05-07T23:43:35.373Z,83.50
2019-05-07T23:46:07.465Z,83.10
2019-05-07T23:48:39.308Z,83.60
2019-05-07T23:51:12.637Z,83.70
2019-05-07T23:53:44.569Z,83.60
2019-05-07T23:56:16.378Z,83.70
2019-05-07T23:58:48.132Z,83.90
